createdAt,value
2022-12-07T09:19:50.518Z,101505.66
2022-12-07T09:22:23.104Z,101505.06
2022-12-07T09:24:55.899Z,101507.84
2022-12-07T09:27:29.151Z,101502.88
2022-12-07T09:30:11.882Z,101504.13
2022-12-07T09:32:44.453Z,101505.34
2022-12-07T09:35:17.125Z,101505.97
2022-12-07T09:37:49.932Z,101508.16
2022-12-07T09:40:25.276Z,101507.97
2022-12-07T09:42:57.914Z,101512.66
2022-12-07T09:45:37.348Z,101519.03
2022-12-07T09:48:40.275Z,101517.44
2022-12-07T09:51:28.175Z,101509.50
2022-12-07T09:54:01.439Z,101508.13
2022-12-07T09:56:34.223Z,101518.38
2022-12-07T09:59:06.977Z,101507.19
2022-12-07T10:01:40.537Z,101518.38
2022-12-07T10:04:35.839Z,101503.13
2022-12-07T10:07:08.421Z,101511.84
2022-12-07T10:09:42.024Z,101510.75
2022-12-07T10:12:14.697Z,101498.16
2022-12-07T10:15:08.532Z,101495.31
2022-12-07T10:17:51.892Z,101486.00
2022-12-07T10:20:27.739Z,101487.25
2022-12-07T10:23:19.234Z,101486.91
2022-12-07T10:28:42.655Z,101485.06
2022-12-07T10:31:24.287Z,101473.38
2022-12-07T10:34:00.701Z,101472.16
2022-12-07T10:36:33.097Z,101465.59
2022-12-07T10:39:15.444Z,101465.13
2022-12-07T10:42:04.929Z,101462.50
2022-12-07T10:44:37.456Z,101456.44
2022-12-07T10:47:28.402Z,101464.06
2022-12-07T10:50:51.625Z,101458.56
2022-12-07T10:54:12.513Z,101462.31
2022-12-07T10:57:12.125Z,101461.38
2022-12-07T11:00:13.024Z,101452.34
2022-12-07T11:03:00.231Z,101447.09
2022-12-07T11:06:02.744Z,101446.13
2022-12-07T11:09:10.208Z,101440.16
2022-12-07T11:12:08.691Z,101430.38
2022-12-07T11:15:18.394Z,101433.03
2022-12-07T11:18:40.632Z,101427.59
2022-12-07T11:21:48.884Z,101425.84
2022-12-07T11:24:36.693Z,101426.81
2022-12-07T11:27:45.537Z,101418.34
2022-12-07T11:30:24.791Z,101421.97
2022-12-07T11:33:47.929Z,101421.59
2022-12-07T11:36:45.146Z,101420.25
2022-12-07T11:39:23.648Z,101414.66
2022-12-07T11:45:10.803Z,101408.41
2022-12-07T11:47:56.644Z,101407.16
2022-12-07T11:50:56.008Z,101402.50
2022-12-07T11:54:22.664Z,101407.41
2022-12-07T11:57:05.173Z,101396.63
2022-12-07T11:59:48.213Z,101406.56
2022-12-07T12:02:33.555Z,101399.72
2022-12-07T12:05:19.275Z,101401.84
2022-12-07T12:11:47.996Z,101393.38
2022-12-07T12:15:22.282Z,101391.56
2022-12-07T12:18:18.972Z,101385.25
2022-12-07T12:21:01.686Z,101390.34
2022-12-07T12:24:01.741Z,101389.13
2022-12-07T12:26:39.493Z,101381.94
2022-12-07T12:29:33.933Z,101381.63
2022-12-07T12:32:17.674Z,101383.00
2022-12-07T12:35:27.495Z,101369.13
2022-12-07T12:38:49.146Z,101367.84
2022-12-07T12:41:37.015Z,101361.94
2022-12-07T12:44:29.800Z,101363.28
2022-12-07T12:47:05.930Z,101354.16
2022-12-07T12:49:44.147Z,101346.06
2022-12-07T12:52:25.381Z,101343.25
2022-12-07T12:55:12.494Z,101344.53
2022-12-07T12:57:45.062Z,101340.47
2022-12-07T13:00:23.929Z,101341.41
2022-12-07T13:03:00.845Z,101332.56
2022-12-07T13:05:39.217Z,101328.00
2022-12-07T13:08:30.480Z,101328.19
2022-12-07T13:11:35.682Z,101329.47
2022-12-07T13:14:41.929Z,101319.22
2022-12-07T13:17:43.557Z,101324.84
2022-12-07T13:21:08.233Z,101321.06
2022-12-07T13:23:46.711Z,101312.25
2022-12-07T13:26:30.943Z,101317.28
2022-12-07T13:29:18.637Z,101315.75
2022-12-07T13:31:58.089Z,101311.84
2022-12-07T13:34:40.228Z,101311.56
2022-12-07T13:37:36.681Z,101304.03
2022-12-07T13:40:23.701Z,101305.00
2022-12-07T13:43:06.002Z,101300.63
2022-12-07T13:45:59.548Z,101297.56
2022-12-07T13:48:44.017Z,101293.50
2022-12-07T13:51:23.316Z,101292.59
2022-12-07T13:54:02.853Z,101285.69
2022-12-07T13:56:37.307Z,101289.44
2022-12-07T13:59:23.585Z,101285.97
2022-12-07T14:01:56.240Z,101288.66
2022-12-07T14:04:38.041Z,101286.63
2022-12-07T14:07:22.926Z,101280.09
2022-12-07T14:10:06.709Z,101279.19
2022-12-07T14:12:39.254Z,101279.97
2022-12-07T14:15:24.780Z,101275.44
2022-12-07T14:17:59.809Z,101272.06
2022-12-07T14:20:41.876Z,101267.41
2022-12-07T14:23:27.265Z,101267.03
2022-12-07T14:26:15.514Z,101260.66
2022-12-07T14:28:48.803Z,101264.59
2022-12-07T14:31:30.621Z,101262.09
2022-12-07T14:34:03.561Z,101258.53
2022-12-07T14:36:36.088Z,101253.88
2022-12-07T14:39:13.092Z,101245.00
2022-12-07T14:41:52.278Z,101247.50
2022-12-07T14:44:28.024Z,101253.09
2022-12-07T14:50:05.097Z,101250.59
2022-12-07T14:55:39.638Z,101253.28
2022-12-07T14:58:17.992Z,101241.81
2022-12-07T15:00:50.527Z,101243.81
2022-12-07T15:03:23.147Z,101245.53
2022-12-07T15:05:55.637Z,101243.25
2022-12-07T15:08:28.228Z,101241.69
2022-12-07T15:11:00.781Z,101234.53
2022-12-07T15:13:52.205Z,101229.88
2022-12-07T15:16:24.809Z,101229.88
2022-12-07T15:19:26.755Z,101235.47
2022-12-07T15:21:50.576Z,101240.28
2022-12-07T15:24:24.933Z,101227.72
2022-12-07T15:26:57.497Z,101230.22
2022-12-07T15:29:30.253Z,101235.06
2022-12-07T15:32:03.038Z,101229.63
2022-12-07T15:34:39.884Z,101221.41
2022-12-07T15:37:13.461Z,101225.00
2022-12-07T15:39:45.993Z,101225.94
2022-12-07T15:42:18.582Z,101233.25
2022-12-07T15:45:06.716Z,101230.63
2022-12-07T15:48:19.782Z,101232.88
2022-12-07T15:50:36.241Z,101230.84
2022-12-07T15:53:08.789Z,101231.31
2022-12-07T15:55:41.690Z,101231.00
2022-12-07T15:58:14.240Z,101223.56
2022-12-07T16:00:47.953Z,101221.41
2022-12-07T16:03:20.555Z,101218.91
2022-12-07T16:05:54.105Z,101211.94
2022-12-07T16:08:30.522Z,101215.50
2022-12-07T16:11:07.709Z,101211.66
2022-12-07T16:13:40.345Z,101204.97
2022-12-07T16:16:16.872Z,101201.88
2022-12-07T16:18:51.285Z,101213.53
2022-12-07T16:21:25.589Z,101203.78
2022-12-07T16:23:59.937Z,101210.63
2022-12-07T16:26:32.613Z,101209.38
2022-12-07T16:29:05.217Z,101201.66
2022-12-07T16:31:37.923Z,101197.59
2022-12-07T16:34:10.805Z,101194.50
2022-12-07T16:39:36.026Z,101193.91
2022-12-07T16:42:08.678Z,101192.34
2022-12-07T16:44:42.280Z,101186.44
2022-12-07T16:47:15.031Z,101181.34
2022-12-07T16:49:48.583Z,101183.06
2022-12-07T16:52:22.734Z,101184.63
2022-12-07T16:54:55.187Z,101173.06
2022-12-07T16:57:27.648Z,101171.88
2022-12-07T17:00:00.200Z,101169.56
2022-12-07T17:02:32.732Z,101168.19
2022-12-07T17:05:05.684Z,101164.28
2022-12-07T17:07:39.342Z,101171.47
2022-12-07T17:10:12.149Z,101169.91
2022-12-07T17:12:44.644Z,101165.25
2022-12-07T17:15:17.525Z,101172.88
2022-12-07T17:17:58.757Z,101169.00
2022-12-07T17:20:31.301Z,101160.31
2022-12-07T17:23:03.796Z,101167.91
2022-12-07T17:25:36.322Z,101163.25
2022-12-07T17:28:08.792Z,101163.25
2022-12-07T17:30:41.816Z,101163.72
2022-12-07T17:33:14.401Z,101145.88
2022-12-07T17:35:46.949Z,101153.97
2022-12-07T17:38:19.546Z,101153.66
2022-12-07T17:40:52.205Z,101150.88
2022-12-07T17:43:24.767Z,101142.47
2022-12-07T17:45:57.379Z,101150.25
2022-12-07T17:48:29.980Z,101131.94
2022-12-07T17:51:22.007Z,101130.38
2022-12-07T17:53:54.521Z,101129.16
2022-12-07T17:56:28.864Z,101130.38
2022-12-07T17:59:01.917Z,101120.75
2022-12-07T18:01:35.325Z,101127.88
2022-12-07T18:04:08.382Z,101125.41
2022-12-07T18:06:41.389Z,101133.16
2022-12-07T18:09:13.960Z,101127.88
2022-12-07T18:11:46.709Z,101126.47
2022-12-07T18:14:19.182Z,101124.75
2022-12-07T18:16:51.767Z,101116.94
2022-12-07T18:19:24.410Z,101118.78
2022-12-07T18:21:56.901Z,101120.94
2022-12-07T18:24:36.237Z,101117.94
2022-12-07T18:27:09.481Z,101123.69
2022-12-07T18:29:42.113Z,101120.88
2022-12-07T18:32:14.687Z,101117.41
2022-12-07T18:34:47.195Z,101114.44
2022-12-07T18:37:19.681Z,101111.94
2022-12-07T18:39:52.285Z,101116.09
2022-12-07T18:42:25.111Z,101106.75
2022-12-07T18:44:57.676Z,101104.25
2022-12-07T18:47:30.220Z,101098.94
2022-12-07T18:50:03.148Z,101096.75
2022-12-07T18:52:35.690Z,101092.97
2022-12-07T18:55:08.589Z,101097.34
2022-12-07T18:57:41.120Z,101102.72
2022-12-07T19:00:14.610Z,101094.63
2022-12-07T19:02:47.499Z,101088.56
2022-12-07T19:05:20.876Z,101092.63
2022-12-07T19:07:53.461Z,101087.31
2022-12-07T19:10:26.049Z,101090.38
2022-12-07T19:12:58.736Z,101090.38
2022-12-07T19:15:32.133Z,101092.91
2022-12-07T19:18:04.685Z,101091.94
2022-12-07T19:20:37.253Z,101091.19
2022-12-07T19:23:09.775Z,101089.31
2022-12-07T19:25:42.529Z,101081.72
2022-12-07T19:28:15.010Z,101081.72
2022-12-07T19:30:47.792Z,101084.50
2022-12-07T19:33:20.309Z,101078.63
2022-12-07T19:35:52.769Z,101078.41
2022-12-07T19:38:25.496Z,101082.66
2022-12-07T19:41:32.724Z,101084.78
2022-12-07T19:44:11.270Z,101081.91
2022-12-07T19:46:46.814Z,101085.16
2022-12-07T19:49:21.392Z,101084.88
2022-12-07T19:52:00.603Z,101074.94
2022-12-07T19:54:34.285Z,101076.69
2022-12-07T19:57:09.371Z,101075.41
2022-12-07T19:59:43.151Z,101077.16
2022-12-07T20:02:16.537Z,101072.78
2022-12-07T20:04:49.260Z,101067.69
2022-12-07T20:07:21.769Z,101068.16
2022-12-07T20:09:54.351Z,101067.09
2022-12-07T20:12:45.656Z,101061.22
2022-12-07T20:15:18.464Z,101065.25
2022-12-07T20:17:50.968Z,101061.38
2022-12-07T20:20:23.477Z,101065.44
2022-12-07T20:22:55.956Z,101060.78
2022-12-07T20:25:28.461Z,101053.66
2022-12-07T20:28:00.940Z,101056.63
2022-12-07T20:30:33.507Z,101055.88
2022-12-07T20:33:06.128Z,101051.53
2022-12-07T20:35:38.665Z,101044.59
2022-12-07T20:38:12.648Z,101043.78
2022-12-07T20:40:50.230Z,101036.66
2022-12-07T20:43:22.741Z,101036.84
2022-12-07T20:45:56.164Z,101033.75
2022-12-07T20:48:28.812Z,101030.47
2022-12-07T20:51:06.004Z,101036.25
2022-12-07T20:53:38.508Z,101029.59
2022-12-07T20:56:25.104Z,101029.13
2022-12-07T20:59:02.754Z,101027.75
2022-12-07T21:01:35.563Z,101019.38
2022-12-07T21:04:08.461Z,101018.56
2022-12-07T21:06:41.828Z,101015.97
2022-12-07T21:09:14.396Z,101017.50
2022-12-07T21:11:46.882Z,101015.38
2022-12-07T21:14:19.790Z,101012.59
2022-12-07T21:16:52.286Z,101023.44
2022-12-07T21:19:24.916Z,101022.69
2022-12-07T21:21:57.420Z,101020.06
2022-12-07T21:24:29.955Z,101010.91
2022-12-07T21:27:02.491Z,101007.81
2022-12-07T21:29:43.885Z,101001.44
2022-12-07T21:32:17.303Z,100995.56
2022-12-07T21:34:49.801Z,100998.06
2022-12-07T21:37:22.313Z,100994.97
2022-12-07T21:39:54.921Z,100991.88
2022-12-07T21:42:27.569Z,100988.78
2022-12-07T21:45:00.246Z,100991.56
2022-12-07T21:47:33.049Z,100992.03
2022-12-07T21:50:06.413Z,100981.34
2022-12-07T21:52:38.873Z,100980.69
2022-12-07T21:55:11.405Z,100989.06
2022-12-07T21:57:43.992Z,100982.50
2022-12-07T22:00:17.269Z,100980.03
2022-12-07T22:02:49.773Z,100984.47
2022-12-07T22:05:22.493Z,100977.94
2022-12-07T22:07:55.279Z,100981.81
2022-12-07T22:10:31.064Z,100980.84
2022-12-07T22:13:03.701Z,100981.44
2022-12-07T22:15:40.356Z,100977.72
2022-12-07T22:18:12.904Z,100977.03
2022-12-07T22:20:45.564Z,100972.50
2022-12-07T22:23:18.028Z,100963.94
2022-12-07T22:25:50.527Z,100970.59
2022-12-07T22:28:23.724Z,100964.81
2022-12-07T22:31:04.066Z,100969.72
2022-12-07T22:33:36.816Z,100965.66
2022-12-07T22:36:10.618Z,100963.16
2022-12-07T22:38:44.171Z,100958.66
2022-12-07T22:41:23.526Z,100958.44
2022-12-07T22:43:57.244Z,100955.19
2022-12-07T22:46:29.824Z,100938.69
2022-12-07T22:49:03.318Z,100935.41
2022-12-07T22:51:40.575Z,100931.03
2022-12-07T22:54:16.531Z,100929.00
2022-12-07T22:56:49.109Z,100918.63
2022-12-07T22:59:21.623Z,100914.56
2022-12-07T23:01:54.329Z,100913.56
2022-12-07T23:04:27.028Z,100911.28
2022-12-07T23:06:59.621Z,100906.44
2022-12-07T23:09:32.212Z,100902.09
2022-12-07T23:12:43.596Z,100910.47
2022-12-07T23:15:16.660Z,100900.09
2022-12-07T23:17:49.161Z,100897.75
2022-12-07T23:20:21.705Z,100890.63
2022-12-07T23:22:54.237Z,100894.19
2022-12-07T23:25:26.694Z,100888.31
2022-12-07T23:27:59.173Z,100890.34
2022-12-07T23:30:31.649Z,100888.03
2022-12-07T23:33:04.171Z,100884.47
2022-12-07T23:35:36.731Z,100877.00
2022-12-07T23:38:09.342Z,100877.00
2022-12-07T23:40:42.054Z,100882.59
2022-12-07T23:43:14.685Z,100889.47
2022-12-07T23:45:47.137Z,100880.78
2022-12-07T23:48:19.597Z,100885.63
2022-12-07T23:50:52.118Z,100883.28
2022-12-07T23:53:31.616Z,100876.13
2022-12-07T23:56:05.481Z,100877.88
2022-12-07T23:58:38.343Z,100872.28
